Time;durP1;ratioP1;P1;durP2;ratioP2;P2;SDS_P1;SDS_P2;PMS_P1;PMS_P2;Temp;Humidity;BMP_temperature;BMP_pressure;BME280_temperature;BME280_humidity;BME280_pressure;Samples;Min_cycle;Max_cycle;Signal;HPM_P1;HPM_P2
2022/09/09 00:01:41;;;;;;;2.63;1.20;;;15.10;95.70;;;;;;5098853;28;20410;-44
2022/09/09 00:04:28;;;;;;;5.23;1.53;;;15.10;95.60;;;;;;5098167;28;20427;-45
2022/09/09 00:07:04;;;;;;;5.03;1.60;;;15.00;95.70;;;;;;5098182;28;20427;-45
2022/09/09 00:09:59;;;;;;;4.37;2.00;;;15.00;95.80;;;;;;5098448;28;20410;-43
2022/09/09 00:12:40;;;;;;;2.77;1.70;;;15.00;95.80;;;;;;5094507;28;20720;-47
2022/09/09 00:15:14;;;;;;;5.03;2.13;;;15.00;95.80;;;;;;5097008;28;20955;-46
2022/09/09 00:17:55;;;;;;;7.30;1.83;;;15.00;95.80;;;;;;5098693;28;20423;-45
2022/09/09 00:20:40;;;;;;;2.80;1.67;;;14.90;96.00;;;;;;5080863;28;20426;-45
2022/09/09 00:23:25;;;;;;;3.77;1.60;;;14.90;96.10;;;;;;5100029;28;20435;-46
2022/09/09 00:25:59;;;;;;;3.40;1.60;;;14.90;95.90;;;;;;5100429;28;20874;-44
2022/09/09 00:28:27;;;;;;;3.50;1.70;;;14.90;96.00;;;;;;5098429;28;20427;-47
2022/09/09 00:30:53;;;;;;;4.60;1.70;;;15.00;95.90;;;;;;5096821;28;20411;-44
2022/09/09 00:33:22;;;;;;;2.43;1.40;;;15.10;95.90;;;;;;5097006;28;20524;-43
2022/09/09 00:35:58;;;;;;;5.63;1.70;;;15.10;95.70;;;;;;5096658;28;20422;-45
2022/09/09 00:38:28;;;;;;;3.13;1.60;;;15.10;95.70;;;;;;5097089;28;20718;-44
2022/09/09 00:41:26;;;;;;;3.50;1.70;;;15.10;95.70;;;;;;5097674;28;20512;-44
2022/09/09 00:44:10;;;;;;;2.90;1.50;;;15.10;95.80;;;;;;5054780;28;20486;-47
2022/09/09 00:46:54;;;;;;;4.93;1.93;;;15.10;95.90;;;;;;5099461;28;20749;-47
2022/09/09 00:49:25;;;;;;;4.30;2.33;;;15.10;96.00;;;;;;5099252;28;20445;-45
2022/09/09 00:52:18;;;;;;;6.10;1.70;;;15.10;96.40;;;;;;5099788;28;20690;-47
2022/09/09 00:55:11;;;;;;;3.77;1.73;;;15.10;96.70;;;;;;5089242;28;20490;-46
2022/09/09 00:57:38;;;;;;;2.53;1.30;;;15.10;96.80;;;;;;5098402;28;20502;-45
2022/09/09 01:00:24;;;;;;;3.50;1.50;;;15.10;96.90;;;;;;5096864;28;20501;-45
2022/09/09 01:02:56;;;;;;;3.30;1.40;;;15.10;96.80;;;;;;5096343;28;20444;-45
2022/09/09 01:05:52;;;;;;;2.83;1.60;;;15.10;97.00;;;;;;5096186;28;20447;-45
2022/09/09 01:08:39;;;;;;;4.80;1.57;;;15.10;97.10;;;;;;5096166;28;20430;-45
2022/09/09 01:11:30;;;;;;;2.57;1.50;;;15.10;96.80;;;;;;5096275;28;20546;-43
2022/09/09 01:14:13;;;;;;;12.80;2.30;;;15.10;96.80;;;;;;5098966;28;20467;-43
2022/09/09 01:16:38;;;;;;;3.97;1.37;;;15.10;96.50;;;;;;5098536;28;20458;-45
2022/09/09 01:19:07;;;;;;;2.70;1.43;;;15.10;96.50;;;;;;5098781;28;20759;-45
2022/09/09 01:22:03;;;;;;;3.90;1.80;;;15.00;96.40;;;;;;5097891;28;20558;-45
2022/09/09 01:25:08;;;;;;;3.33;1.57;;;15.00;96.50;;;;;;5097438;28;20467;-45
2022/09/09 01:27:35;;;;;;;2.47;1.20;;;15.00;96.30;;;;;;5073926;28;20423;-44
2022/09/09 01:30:00;;;;;;;3.40;1.70;;;15.00;95.90;;;;;;5096387;28;20429;-44
2022/09/09 01:32:42;;;;;;;3.13;1.63;;;15.00;96.30;;;;;;5096645;28;20472;-44
2022/09/09 01:35:15;;;;;;;6.10;1.70;;;15.10;96.00;;;;;;5098339;28;20230;-44
2022/09/09 01:37:41;;;;;;;6.43;1.90;;;15.10;95.80;;;;;;5096738;28;20417;-45
2022/09/09 01:40:07;;;;;;;2.77;1.70;;;15.10;95.70;;;;;;5096700;28;20432;-45
2022/09/09 01:42:33;;;;;;;2.93;1.73;;;15.10;95.70;;;;;;5096883;28;20447;-44
2022/09/09 01:44:58;;;;;;;2.87;1.60;;;15.10;95.80;;;;;;5096683;28;20463;-45
2022/09/09 01:47:24;;;;;;;1.83;1.20;;;15.00;95.90;;;;;;5097432;28;20176;-46
2022/09/09 01:49:50;;;;;;;2.83;1.50;;;15.00;96.10;;;;;;5096201;28;20209;-46
2022/09/09 01:52:15;;;;;;;2.67;1.43;;;15.00;96.10;;;;;;5096538;28;20890;-44
2022/09/09 01:54:41;;;;;;;3.50;1.50;;;14.90;96.20;;;;;;5097976;28;20240;-46
2022/09/09 01:57:27;;;;;;;2.90;1.63;;;14.90;96.40;;;;;;5096025;28;20169;-45
2022/09/09 02:00:08;;;;;;;2.07;1.43;;;14.90;96.50;;;;;;5097039;28;20220;-45
2022/09/09 02:02:59;;;;;;;5.27;1.40;;;14.80;96.70;;;;;;5098344;28;20872;-44
2022/09/09 02:05:49;;;;;;;7.50;2.47;;;14.70;96.80;;;;;;5097227;28;20411;-44
2022/09/09 02:08:25;;;;;;;3.73;1.70;;;14.70;97.00;;;;;;5095929;28;20989;-45
2022/09/09 02:10:55;;;;;;;4.63;1.80;;;14.70;97.00;;;;;;5094871;28;20798;-45
2022/09/09 02:13:21;;;;;;;2.87;1.50;;;14.70;97.20;;;;;;5096881;28;20582;-45
2022/09/09 02:16:00;;;;;;;3.00;2.00;;;14.60;97.30;;;;;;5096883;28;20418;-45
2022/09/09 02:18:35;;;;;;;2.00;1.30;;;14.60;97.30;;;;;;5094943;28;20418;-45
2022/09/09 02:21:01;;;;;;;5.87;1.60;;;14.60;97.50;;;;;;5096930;28;20474;-47
2022/09/09 02:23:28;;;;;;;1.57;1.40;;;14.50;97.60;;;;;;5097029;28;20438;-45
2022/09/09 02:25:54;;;;;;;3.13;1.73;;;14.50;97.80;;;;;;5096487;28;20532;-44
2022/09/09 02:28:22;;;;;;;2.67;2.03;;;14.40;98.00;;;;;;5093236;28;20431;-45
2022/09/09 02:30:53;;;;;;;2.00;1.40;;;14.40;98.10;;;;;;5097241;28;20475;-44
2022/09/09 02:33:19;;;;;;;3.10;1.60;;;14.40;98.30;;;;;;5095594;28;20454;-48
2022/09/09 02:35:45;;;;;;;2.63;1.53;;;14.30;98.20;;;;;;5095831;28;20532;-43
2022/09/09 02:38:12;;;;;;;2.17;1.63;;;14.30;98.40;;;;;;5096810;28;20466;-47
2022/09/09 02:40:38;;;;;;;2.13;1.20;;;14.30;98.30;;;;;;5095114;28;20725;-43
2022/09/09 02:43:04;;;;;;;3.03;1.67;;;14.20;98.30;;;;;;5095867;28;20431;-43
2022/09/09 02:45:42;;;;;;;11.43;1.90;;;14.20;98.40;;;;;;5095103;28;20593;-48
2022/09/09 02:48:30;;;;;;;2.83;1.20;;;14.20;98.60;;;;;;5094045;28;20205;-44
2022/09/09 02:51:04;;;;;;;2.50;1.47;;;14.10;98.60;;;;;;5095631;28;20427;-46
2022/09/09 02:53:48;;;;;;;2.30;1.23;;;14.10;98.70;;;;;;5095687;28;20403;-46
2022/09/09 02:56:16;;;;;;;1.93;1.33;;;14.10;98.80;;;;;;5098746;28;20435;-44
2022/09/09 02:58:42;;;;;;;2.67;1.57;;;14.10;98.90;;;;;;5101205;28;20515;-44
2022/09/09 03:01:08;;;;;;;1.73;1.63;;;14.00;99.00;;;;;;5101354;28;20847;-43
2022/09/09 03:03:34;;;;;;;1.70;1.10;;;14.00;99.10;;;;;;5101246;28;20177;-45
2022/09/09 03:06:00;;;;;;;7.93;2.30;;;14.10;99.20;;;;;;5099906;28;20423;-45
2022/09/09 03:08:27;;;;;;;2.60;1.53;;;14.00;99.10;;;;;;5101235;28;20431;-45
2022/09/09 03:10:54;;;;;;;1.90;1.30;;;14.00;99.30;;;;;;5100957;28;20425;-43
2022/09/09 03:13:20;;;;;;;3.47;1.30;;;14.00;99.50;;;;;;5101257;28;20422;-43
2022/09/09 03:15:48;;;;;;;4.77;1.70;;;14.00;99.50;;;;;;5101441;28;20441;-44
2022/09/09 03:18:13;;;;;;;2.87;1.33;;;13.90;99.50;;;;;;5100497;28;20509;-44
2022/09/09 03:20:41;;;;;;;1.70;1.20;;;13.90;99.60;;;;;;5099802;28;20510;-43
2022/09/09 03:23:07;;;;;;;4.07;1.40;;;13.90;99.60;;;;;;5099747;28;20578;-45
2022/09/09 03:25:33;;;;;;;2.90;1.30;;;13.90;99.60;;;;;;5099159;28;20417;-45
2022/09/09 03:27:58;;;;;;;4.57;1.87;;;13.90;99.70;;;;;;5100905;28;20182;-45
2022/09/09 03:30:26;;;;;;;3.27;1.23;;;13.80;99.60;;;;;;5100555;28;20450;-43
2022/09/09 03:32:52;;;;;;;1.83;1.10;;;13.80;99.80;;;;;;5100875;28;20209;-45
2022/09/09 03:35:17;;;;;;;3.30;1.70;;;13.80;99.70;;;;;;5098137;28;20811;-46
2022/09/09 03:37:43;;;;;;;1.90;1.30;;;13.80;99.70;;;;;;5099324;28;20229;-46
2022/09/09 03:40:10;;;;;;;1.80;1.00;;;13.80;99.70;;;;;;5099586;28;20200;-45
2022/09/09 03:42:36;;;;;;;6.33;1.70;;;13.80;99.80;;;;;;5099736;28;20890;-43
2022/09/09 03:45:04;;;;;;;1.90;1.00;;;13.80;99.70;;;;;;5098153;28;20519;-48
2022/09/09 03:47:29;;;;;;;2.40;1.37;;;13.80;99.90;;;;;;5099784;28;20443;-46
2022/09/09 03:49:55;;;;;;;1.90;1.33;;;13.70;99.90;;;;;;5100046;28;20861;-45
2022/09/09 03:52:24;;;;;;;3.67;1.30;;;13.70;99.90;;;;;;5098902;28;20181;-45
2022/09/09 03:54:50;;;;;;;2.77;1.20;;;13.70;99.90;;;;;;5097709;28;20221;-48
2022/09/09 03:57:16;;;;;;;2.60;2.13;;;13.70;99.90;;;;;;5097341;28;20471;-45
2022/09/09 03:59:43;;;;;;;3.13;1.60;;;13.70;99.90;;;;;;5097158;28;20450;-48
2022/09/09 04:02:08;;;;;;;2.23;1.10;;;13.60;99.90;;;;;;5095600;28;20414;-44
2022/09/09 04:04:34;;;;;;;3.57;1.63;;;13.60;99.90;;;;;;5095545;28;20408;-44
2022/09/09 04:07:00;;;;;;;3.53;1.20;;;13.60;99.90;;;;;;5097106;28;20437;-44
2022/09/09 04:09:25;;;;;;;2.10;1.60;;;13.60;99.90;;;;;;5097539;28;20391;-47
2022/09/09 04:11:52;;;;;;;1.97;1.20;;;13.60;99.90;;;;;;5098089;28;20446;-44
2022/09/09 04:14:18;;;;;;;2.77;1.43;;;13.70;99.90;;;;;;5099415;28;20227;-45
2022/09/09 04:16:44;;;;;;;2.07;1.47;;;13.80;99.90;;;;;;5098742;28;20455;-48
2022/09/09 04:19:13;;;;;;;3.80;1.83;;;13.80;99.90;;;;;;5097271;28;20458;-44
2022/09/09 04:21:39;;;;;;;3.53;1.60;;;13.90;99.90;;;;;;5098110;28;20426;-45
2022/09/09 04:24:06;;;;;;;3.80;1.50;;;13.90;99.90;;;;;;5097395;28;20577;-44
2022/09/09 04:26:32;;;;;;;3.53;1.77;;;13.90;99.90;;;;;;5095831;28;20429;-46
2022/09/09 04:28:58;;;;;;;8.13;2.23;;;14.10;99.60;;;;;;5094807;28;20444;-45
2022/09/09 04:31:24;;;;;;;2.10;1.63;;;14.20;99.30;;;;;;5098661;28;20680;-45
2022/09/09 04:33:53;;;;;;;3.07;1.70;;;14.30;99.20;;;;;;5094717;28;20294;-45
2022/09/09 04:36:19;;;;;;;3.97;1.50;;;14.30;99.20;;;;;;5094449;28;20455;-46
2022/09/09 04:38:46;;;;;;;4.60;1.87;;;14.40;99.00;;;;;;5095032;28;20725;-44
2022/09/09 04:41:12;;;;;;;3.03;1.70;;;14.50;98.70;;;;;;5094246;28;20433;-44
2022/09/09 04:43:38;;;;;;;3.47;1.70;;;14.60;98.50;;;;;;5075260;28;20423;-44
2022/09/09 04:46:04;;;;;;;3.33;1.40;;;14.50;98.60;;;;;;5093392;28;20561;-45
2022/09/09 04:48:30;;;;;;;2.90;2.03;;;14.50;98.70;;;;;;5095801;28;20909;-44
2022/09/09 04:51:14;;;;;;;4.03;1.83;;;14.50;98.70;;;;;;5098670;28;20204;-44
2022/09/09 04:53:40;;;;;;;4.10;1.83;;;14.40;98.70;;;;;;5097241;28;20455;-45
2022/09/09 04:56:11;;;;;;;1.70;1.57;;;14.40;98.70;;;;;;5094488;28;20979;-45
2022/09/09 04:58:38;;;;;;;3.73;1.80;;;14.40;98.70;;;;;;5097257;28;20168;-43
2022/09/09 05:01:09;;;;;;;2.40;1.60;;;14.40;98.80;;;;;;5097016;28;20483;-47
2022/09/09 05:03:34;;;;;;;3.17;2.20;;;14.40;98.80;;;;;;5095798;28;20423;-44
2022/09/09 05:06:09;;;;;;;2.33;1.30;;;14.40;99.00;;;;;;5096783;28;20428;-43
2022/09/09 05:08:38;;;;;;;1.90;1.53;;;14.40;99.00;;;;;;5095921;28;20202;-44
2022/09/09 05:11:16;;;;;;;3.40;1.90;;;14.40;99.10;;;;;;5093745;28;20447;-44
2022/09/09 05:13:41;;;;;;;3.17;1.80;;;14.40;99.20;;;;;;5095696;28;20508;-45
2022/09/09 05:16:07;;;;;;;5.70;1.93;;;14.40;99.20;;;;;;5096058;28;20438;-47
2022/09/09 05:18:32;;;;;;;5.80;1.70;;;14.50;99.10;;;;;;5094294;28;20173;-45
2022/09/09 05:21:01;;;;;;;3.60;1.60;;;14.50;99.20;;;;;;5093190;28;20220;-45
2022/09/09 05:23:27;;;;;;;3.50;1.70;;;14.50;99.30;;;;;;5093220;28;20173;-45
2022/09/09 05:25:56;;;;;;;3.20;1.60;;;14.60;99.20;;;;;;5090974;28;20427;-45
2022/09/09 05:28:24;;;;;;;1.90;1.40;;;14.60;99.30;;;;;;5090852;28;20407;-45
2022/09/09 05:31:03;;;;;;;2.47;1.70;;;14.60;99.30;;;;;;5090494;28;20421;-43
2022/09/09 05:33:29;;;;;;;2.67;1.70;;;14.60;99.50;;;;;;5091903;28;20463;-44
2022/09/09 05:36:06;;;;;;;2.13;1.53;;;14.70;99.40;;;;;;5092177;28;20740;-45
2022/09/09 05:38:35;;;;;;;3.87;1.70;;;14.70;99.10;;;;;;5092871;28;20415;-44
2022/09/09 05:41:02;;;;;;;3.70;1.77;;;14.80;99.10;;;;;;5093257;28;20454;-44
2022/09/09 05:43:29;;;;;;;3.90;1.77;;;14.80;99.20;;;;;;5094333;28;20434;-44
2022/09/09 05:46:04;;;;;;;3.10;1.97;;;14.80;99.00;;;;;;5094903;28;20484;-45
2022/09/09 05:48:30;;;;;;;2.67;1.83;;;14.90;99.10;;;;;;5095740;28;20688;-45
2022/09/09 05:50:56;;;;;;;4.30;1.83;;;15.00;99.00;;;;;;5095461;28;20415;-45
2022/09/09 05:53:22;;;;;;;2.50;1.83;;;15.00;99.00;;;;;;5095845;28;20423;-44
2022/09/09 05:55:48;;;;;;;3.10;1.80;;;15.00;99.00;;;;;;5095945;28;20173;-45
2022/09/09 05:58:16;;;;;;;2.80;1.80;;;15.00;99.00;;;;;;5095484;28;20205;-45
2022/09/09 06:00:43;;;;;;;2.83;1.60;;;15.00;99.40;;;;;;5094614;28;20789;-45
2022/09/09 06:03:11;;;;;;;3.23;1.70;;;14.90;99.30;;;;;;5093427;28;20427;-44
2022/09/09 06:05:37;;;;;;;3.73;2.00;;;14.90;99.30;;;;;;5095189;28;20421;-47
2022/09/09 06:08:03;;;;;;;4.47;1.80;;;15.00;99.20;;;;;;5092515;28;20419;-43
2022/09/09 06:10:28;;;;;;;6.80;1.90;;;15.00;99.20;;;;;;5094028;28;20181;-43
2022/09/09 06:12:54;;;;;;;2.73;2.00;;;15.00;99.20;;;;;;5095742;28;20428;-45
2022/09/09 06:15:20;;;;;;;4.87;1.87;;;15.10;99.20;;;;;;5096256;28;20272;-46
2022/09/09 06:17:47;;;;;;;5.70;1.90;;;15.00;99.20;;;;;;5097049;28;20497;-43
2022/09/09 06:20:13;;;;;;;3.43;1.80;;;15.00;99.40;;;;;;5094910;28;20274;-45
2022/09/09 06:22:40;;;;;;;2.97;2.10;;;15.10;99.40;;;;;;5094149;28;20427;-44
2022/09/09 06:25:07;;;;;;;3.00;1.90;;;15.20;99.40;;;;;;5093413;28;20454;-45
2022/09/09 06:27:33;;;;;;;2.53;1.60;;;15.20;99.20;;;;;;5094264;28;20933;-45
2022/09/09 06:29:58;;;;;;;3.63;2.03;;;15.30;99.00;;;;;;5093573;28;20411;-44
2022/09/09 06:32:26;;;;;;;4.40;2.00;;;15.30;99.00;;;;;;5093053;28;20544;-43
2022/09/09 06:34:52;;;;;;;2.73;2.00;;;15.40;99.00;;;;;;5094274;28;20242;-49
2022/09/09 06:37:17;;;;;;;6.20;1.70;;;15.50;99.00;;;;;;5092726;28;20989;-43
2022/09/09 06:39:43;;;;;;;4.60;1.50;;;15.50;99.10;;;;;;5093799;28;20279;-45
2022/09/09 06:42:09;;;;;;;2.53;1.47;;;15.60;98.70;;;;;;5093746;28;20177;-44
2022/09/09 06:44:34;;;;;;;2.53;1.80;;;15.70;98.40;;;;;;5092124;28;20191;-43
2022/09/09 06:47:00;;;;;;;3.37;1.50;;;15.80;98.30;;;;;;5092120;28;20197;-47
2022/09/09 06:49:26;;;;;;;5.80;2.00;;;15.90;98.20;;;;;;5091335;28;20578;-45
2022/09/09 06:51:52;;;;;;;2.93;1.67;;;16.00;98.00;;;;;;5093017;28;20180;-47
2022/09/09 06:54:19;;;;;;;5.20;2.57;;;16.10;98.50;;;;;;5072027;28;20618;-47
2022/09/09 06:56:45;;;;;;;2.53;1.90;;;16.30;99.80;;;;;;5081808;28;20441;-52
2022/09/09 06:59:11;;;;;;;3.30;1.67;;;16.30;97.70;;;;;;5089606;28;20977;-50
2022/09/09 07:01:46;;;;;;;3.07;1.80;;;16.40;97.60;;;;;;5095939;28;20275;-48
2022/09/09 07:04:13;;;;;;;4.83;1.77;;;16.60;97.60;;;;;;5095783;28;20427;-47
2022/09/09 07:06:42;;;;;;;4.57;2.13;;;16.70;97.00;;;;;;5095831;28;20462;-48
2022/09/09 07:09:11;;;;;;;3.83;1.80;;;16.70;97.00;;;;;;5094202;28;20501;-50
2022/09/09 07:11:41;;;;;;;10.63;2.17;;;16.80;96.70;;;;;;5094210;28;20713;-51
2022/09/09 07:14:07;;;;;;;4.40;2.00;;;17.00;97.90;;;;;;5094105;28;20514;-48
2022/09/09 07:16:36;;;;;;;2.67;1.53;;;17.20;98.00;;;;;;5094791;28;20913;-46
2022/09/09 07:19:03;;;;;;;3.13;1.67;;;17.50;97.20;;;;;;5093564;28;20447;-47
2022/09/09 07:21:29;;;;;;;2.97;1.70;;;17.60;95.80;;;;;;5095327;28;20435;-47
2022/09/09 07:23:55;;;;;;;3.77;1.60;;;17.60;95.80;;;;;;5095869;28;20830;-48
2022/09/09 07:26:23;;;;;;;3.50;1.93;;;17.50;95.50;;;;;;5092368;28;20443;-48
2022/09/09 07:28:49;;;;;;;6.43;1.50;;;17.70;95.40;;;;;;5095315;28;20782;-47
2022/09/09 07:31:21;;;;;;;1.80;1.30;;;17.90;95.30;;;;;;5092736;28;20434;-48
2022/09/09 07:33:48;;;;;;;4.73;1.70;;;18.20;94.80;;;;;;5091158;28;20499;-48
2022/09/09 07:36:17;;;;;;;5.20;2.07;;;18.60;94.50;;;;;;5089076;28;20435;-49
2022/09/09 07:38:45;;;;;;;2.60;1.60;;;18.60;94.00;;;;;;5089046;28;20715;-49
2022/09/09 07:41:17;;;;;;;2.60;1.50;;;18.70;94.10;;;;;;5090516;28;21434;-48
2022/09/09 07:43:44;;;;;;;3.80;1.40;;;18.60;93.60;;;;;;5093426;28;20436;-52
2022/09/09 07:46:11;;;;;;;2.60;1.43;;;18.40;93.60;;;;;;5089726;28;20412;-48
2022/09/09 07:48:37;;;;;;;2.53;1.50;;;18.60;94.00;;;;;;5087051;28;20531;-48
2022/09/09 07:51:10;;;;;;;2.60;1.70;;;18.70;93.80;;;;;;5088845;28;20524;-48
2022/09/09 07:53:36;;;;;;;4.37;1.90;;;18.70;93.90;;;;;;5081812;28;20805;-49
2022/09/09 07:56:09;;;;;;;5.30;1.90;;;18.50;93.60;;;;;;5091639;28;20414;-49
2022/09/09 07:58:36;;;;;;;2.77;1.57;;;18.70;94.30;;;;;;5083195;28;20554;-48
2022/09/09 08:01:09;;;;;;;2.90;1.37;;;18.80;93.90;;;;;;5092953;28;20896;-47
2022/09/09 08:03:35;;;;;;;5.27;1.60;;;19.10;94.30;;;;;;5091074;28;20416;-48
2022/09/09 08:06:03;;;;;;;2.90;1.83;;;19.40;93.50;;;;;;5091270;28;20419;-47
2022/09/09 08:08:29;;;;;;;3.63;2.20;;;19.40;92.90;;;;;;5094219;28;20240;-48
2022/09/09 08:11:11;;;;;;;2.70;1.60;;;19.30;92.60;;;;;;5093902;28;20413;-51
2022/09/09 08:13:38;;;;;;;3.47;1.57;;;19.50;93.10;;;;;;5096048;28;20502;-48
2022/09/09 08:16:11;;;;;;;2.73;1.60;;;19.70;92.10;;;;;;5095994;28;20425;-49
2022/09/09 08:18:37;;;;;;;2.97;1.60;;;19.70;92.50;;;;;;5095483;28;20464;-50
2022/09/09 08:21:12;;;;;;;3.10;1.53;;;19.70;92.10;;;;;;5093599;28;20420;-49
2022/09/09 08:23:41;;;;;;;3.07;1.60;;;19.70;91.50;;;;;;5094591;28;20410;-48
2022/09/09 08:26:22;;;;;;;5.13;1.93;;;19.70;91.50;;;;;;5094353;28;20400;-47
2022/09/09 08:28:53;;;;;;;3.00;1.40;;;19.50;92.00;;;;;;5094934;28;20871;-49
2022/09/09 08:31:20;;;;;;;3.30;1.43;;;19.60;92.00;;;;;;5094812;28;20489;-49
2022/09/09 08:33:47;;;;;;;6.33;3.20;;;19.90;92.10;;;;;;5095593;28;20479;-51
2022/09/09 08:36:15;;;;;;;4.67;1.73;;;20.40;91.90;;;;;;5096295;28;20453;-49
2022/09/09 08:38:42;;;;;;;2.07;1.50;;;20.20;90.90;;;;;;5096148;28;20425;-47
2022/09/09 08:41:21;;;;;;;3.30;1.40;;;20.40;90.90;;;;;;5097120;28;20429;-49
2022/09/09 08:43:47;;;;;;;2.50;1.30;;;20.40;90.00;;;;;;5094811;28;20414;-48
2022/09/09 08:46:32;;;;;;;5.40;1.60;;;20.20;90.40;;;;;;5093617;28;20862;-48
2022/09/09 08:49:18;;;;;;;3.83;1.73;;;20.50;90.70;;;;;;5096446;28;20849;-47
2022/09/09 08:51:44;;;;;;;5.00;1.33;;;20.60;90.70;;;;;;5094883;28;20515;-48
2022/09/09 08:54:09;;;;;;;3.20;1.60;;;20.90;89.80;;;;;;5093395;28;20503;-47
2022/09/09 08:56:36;;;;;;;2.87;1.73;;;20.70;90.30;;;;;;5093410;28;20439;-49
2022/09/09 08:59:03;;;;;;;3.10;1.40;;;20.60;90.30;;;;;;5094108;28;20268;-50
2022/09/09 09:01:42;;;;;;;4.37;1.80;;;20.60;90.70;;;;;;5095887;28;20445;-50
2022/09/09 09:04:25;;;;;;;4.20;2.37;;;20.10;92.10;;;;;;5095579;28;20850;-49
2022/09/09 09:07:23;;;;;;;3.90;1.33;;;19.70;94.60;;;;;;5094234;28;20436;-47
2022/09/09 09:10:02;;;;;;;2.80;1.27;;;18.70;92.90;;;;;;5095720;28;20447;-48
2022/09/09 09:12:32;;;;;;;3.80;1.60;;;18.50;94.50;;;;;;5077073;28;20900;-47
2022/09/09 09:14:59;;;;;;;4.50;1.47;;;18.30;95.80;;;;;;5074870;28;20496;-49
2022/09/09 09:17:29;;;;;;;3.33;1.50;;;18.20;96.60;;;;;;5074071;28;20686;-49
2022/09/09 09:19:55;;;;;;;2.43;0.83;;;18.00;95.00;;;;;;5072389;28;20413;-49
2022/09/09 09:22:25;;;;;;;2.47;1.53;;;18.00;94.70;;;;;;5074322;28;20410;-49
2022/09/09 09:24:55;;;;;;;1.87;1.07;;;18.10;95.50;;;;;;5078795;28;20185;-48
2022/09/09 09:27:43;;;;;;;4.00;1.87;;;18.40;94.30;;;;;;5077057;28;20493;-47
2022/09/09 09:30:20;;;;;;;3.40;1.57;;;18.80;94.40;;;;;;5071511;28;20418;-48
2022/09/09 09:33:12;;;;;;;3.07;1.10;;;19.50;95.10;;;;;;5071364;28;20419;-46
2022/09/09 09:35:38;;;;;;;3.77;1.60;;;20.20;93.90;;;;;;5064442;28;21170;-46
2022/09/09 09:38:19;;;;;;;3.13;1.70;;;20.40;93.40;;;;;;5069861;28;20422;-47
2022/09/09 09:40:50;;;;;;;3.50;1.40;;;20.60;93.20;;;;;;5071380;28;20246;-47
2022/09/09 09:43:31;;;;;;;4.33;1.60;;;21.40;92.80;;;;;;5074433;28;20941;-52
2022/09/09 09:45:57;;;;;;;4.50;1.50;;;22.10;91.20;;;;;;5090640;28;20431;-50
2022/09/09 09:48:24;;;;;;;3.87;1.40;;;22.90;88.90;;;;;;5090677;28;20432;-48
2022/09/09 09:50:55;;;;;;;5.03;2.00;;;24.40;87.60;;;;;;5092110;28;20437;-50
2022/09/09 09:53:32;;;;;;;3.60;1.50;;;25.70;80.60;;;;;;5089422;28;20436;-46
2022/09/09 09:56:06;;;;;;;3.90;1.70;;;27.10;76.40;;;;;;5090400;28;20521;-52
2022/09/09 09:58:35;;;;;;;3.30;1.47;;;28.10;69.50;;;;;;5092019;28;20405;-47
2022/09/09 10:01:01;;;;;;;5.10;2.00;;;28.30;66.20;;;;;;5091228;28;20502;-48
2022/09/09 10:03:32;;;;;;;2.67;1.90;;;29.10;61.70;;;;;;5100376;28;21189;-50
2022/09/09 10:05:58;;;;;;;2.23;1.43;;;29.50;60.20;;;;;;5110707;28;20256;-50
2022/09/09 10:08:28;;;;;;;3.13;1.60;;;30.10;59.00;;;;;;5110867;28;20482;-51
2022/09/09 10:11:16;;;;;;;4.23;1.70;;;30.10;57.00;;;;;;5113799;28;20404;-48
2022/09/09 10:13:59;;;;;;;2.60;1.70;;;28.20;59.60;;;;;;5113774;28;20420;-55
2022/09/09 10:16:31;;;;;;;2.80;1.60;;;26.50;62.30;;;;;;5115792;28;20437;-59
2022/09/09 10:19:14;;;;;;;3.87;1.53;;;25.20;62.60;;;;;;5114836;28;20409;-51
2022/09/09 10:21:53;;;;;;;3.47;1.67;;;24.50;69.60;;;;;;5113449;28;20428;-46
2022/09/09 10:24:30;;;;;;;3.87;1.93;;;24.90;72.30;;;;;;5111700;28;20446;-48
2022/09/09 10:27:22;;;;;;;3.80;1.83;;;24.60;71.20;;;;;;5112396;28;20752;-49
2022/09/09 10:30:10;;;;;;;3.20;1.80;;;24.40;72.50;;;;;;5112674;28;20497;-48
2022/09/09 10:32:48;;;;;;;3.90;1.70;;;23.90;73.00;;;;;;5114433;28;20723;-48
2022/09/09 10:35:39;;;;;;;2.93;1.70;;;24.00;75.00;;;;;;5115402;28;20509;-46
2022/09/09 10:38:17;;;;;;;3.67;1.50;;;23.70;74.00;;;;;;5115368;28;20822;-47
2022/09/09 10:40:53;;;;;;;3.93;1.67;;;23.10;76.40;;;;;;5114281;28;20819;-49
2022/09/09 10:43:37;;;;;;;2.40;1.73;;;24.90;74.60;;;;;;5114766;28;20422;-48
2022/09/09 10:46:12;;;;;;;3.20;1.53;;;26.40;64.80;;;;;;5115122;28;20432;-50
2022/09/09 10:48:43;;;;;;;4.20;1.80;;;25.50;64.00;;;;;;5113466;28;20402;-51
2022/09/09 10:51:33;;;;;;;3.07;1.97;;;24.60;66.60;;;;;;5113302;28;20426;-47
2022/09/09 10:54:17;;;;;;;2.53;1.40;;;23.80;69.70;;;;;;5114447;28;20452;-48
2022/09/09 10:56:44;;;;;;;3.53;1.93;;;25.20;68.30;;;;;;5111551;28;20808;-52
2022/09/09 10:59:17;;;;;;;3.67;2.17;;;27.50;63.30;;;;;;5090192;28;20422;-49
2022/09/09 11:01:53;;;;;;;3.13;1.67;;;28.70;58.00;;;;;;5087480;28;20598;-50
2022/09/09 11:04:35;;;;;;;2.60;1.50;;;27.00;57.10;;;;;;5092805;28;20415;-49
2022/09/09 11:07:07;;;;;;;2.53;1.10;;;25.90;56.70;;;;;;5090139;28;20437;-50
2022/09/09 11:09:39;;;;;;;3.43;1.43;;;24.10;58.00;;;;;;5099517;28;20447;-47
2022/09/09 11:12:08;;;;;;;2.20;0.93;;;22.70;58.10;;;;;;5094069;28;20454;-45
2022/09/09 11:14:59;;;;;;;3.00;1.10;;;21.40;59.90;;;;;;5092186;28;20788;-46
2022/09/09 11:17:36;;;;;;;3.83;1.40;;;20.40;65.30;;;;;;5096275;28;20449;-45
2022/09/09 11:20:05;;;;;;;1.43;0.93;;;19.70;68.40;;;;;;5095702;28;20453;-47
2022/09/09 11:22:50;;;;;;;2.83;0.93;;;19.50;72.40;;;;;;5095346;28;20532;-46
2022/09/09 11:25:26;;;;;;;3.13;0.80;;;19.00;73.70;;;;;;5096693;28;20407;-44
2022/09/09 11:28:07;;;;;;;2.67;0.97;;;18.50;79.20;;;;;;5093393;28;20459;-46
2022/09/09 11:30:57;;;;;;;2.53;1.17;;;18.50;82.00;;;;;;5094945;28;20477;-46
2022/09/09 11:33:29;;;;;;;1.00;0.47;;;18.80;82.40;;;;;;5098100;28;20470;-46
2022/09/09 11:36:22;;;;;;;1.70;0.60;;;18.80;79.60;;;;;;5098890;28;20469;-44
2022/09/09 11:38:51;;;;;;;1.53;0.60;;;18.50;81.20;;;;;;5099128;28;20421;-47
2022/09/09 11:41:17;;;;;;;1.00;0.50;;;18.40;80.80;;;;;;5097717;28;20405;-46
2022/09/09 11:43:51;;;;;;;1.33;0.50;;;18.50;80.70;;;;;;5094440;28;20565;-46
2022/09/09 11:46:18;;;;;;;1.83;0.50;;;18.70;82.10;;;;;;5095012;28;20431;-45
2022/09/09 11:48:46;;;;;;;1.90;0.50;;;18.70;81.50;;;;;;5096500;28;20432;-45
2022/09/09 11:51:20;;;;;;;1.20;0.30;;;19.00;82.60;;;;;;5090613;28;20403;-46
2022/09/09 11:53:58;;;;;;;1.20;0.50;;;19.30;80.00;;;;;;5092315;28;20424;-53
2022/09/09 11:56:28;;;;;;;1.10;0.40;;;19.60;80.20;;;;;;5090487;28;20614;-46
2022/09/09 11:59:05;;;;;;;1.83;0.77;;;19.90;77.80;;;;;;5092792;28;20447;-47
2022/09/09 12:01:36;;;;;;;1.20;0.50;;;19.80;77.10;;;;;;5094212;28;20414;-46
2022/09/09 12:04:12;;;;;;;1.53;0.60;;;19.70;77.80;;;;;;5091770;28;20433;-45
2022/09/09 12:06:53;;;;;;;1.20;0.50;;;19.90;76.50;;;;;;5092639;28;20413;-47
2022/09/09 12:09:44;;;;;;;1.20;0.50;;;20.60;74.90;;;;;;5092050;28;20525;-47
2022/09/09 12:12:13;;;;;;;1.73;0.53;;;21.50;72.90;;;;;;5093877;28;20454;-50
2022/09/09 12:14:41;;;;;;;3.17;0.60;;;23.20;66.90;;;;;;5094979;28;20457;-45
2022/09/09 12:17:27;;;;;;;1.53;0.57;;;23.20;61.10;;;;;;5094539;28;20422;-45
2022/09/09 12:20:14;;;;;;;1.10;0.50;;;23.50;61.50;;;;;;5093903;28;20436;-48
2022/09/09 12:23:01;;;;;;;2.47;0.63;;;25.00;59.20;;;;;;5097174;28;20426;-47
2022/09/09 12:25:32;;;;;;;2.33;0.63;;;26.70;56.80;;;;;;5097851;28;20418;-50
2022/09/09 12:28:00;;;;;;;1.50;0.70;;;27.40;53.10;;;;;;5094645;28;20426;-45
2022/09/09 12:30:31;;;;;;;3.87;1.20;;;27.00;52.30;;;;;;5094768;28;20815;-49
2022/09/09 12:33:12;;;;;;;3.00;1.10;;;24.70;54.80;;;;;;5095982;28;20465;-48
2022/09/09 12:35:38;;;;;;;1.20;0.60;;;23.20;58.50;;;;;;5096608;28;20524;-46
2022/09/09 12:38:12;;;;;;;1.93;0.90;;;21.90;62.30;;;;;;5094657;28;20663;-44
2022/09/09 12:40:38;;;;;;;2.90;0.80;;;21.30;66.00;;;;;;5091876;28;20695;-43
2022/09/09 12:43:21;;;;;;;3.07;1.00;;;20.60;69.30;;;;;;5088219;28;20710;-47
2022/09/09 12:45:50;;;;;;;3.90;1.10;;;20.10;73.10;;;;;;5086907;28;20419;-46
2022/09/09 12:48:17;;;;;;;2.23;1.00;;;20.20;75.40;;;;;;5086912;28;20434;-48
2022/09/09 12:50:49;;;;;;;3.43;0.80;;;20.60;75.60;;;;;;5088519;28;20735;-46
2022/09/09 12:53:21;;;;;;;1.97;0.80;;;20.70;74.60;;;;;;5090309;28;20449;-47
2022/09/09 12:55:59;;;;;;;2.50;0.90;;;20.40;72.90;;;;;;5090783;28;20705;-45
2022/09/09 12:58:28;;;;;;;2.30;0.80;;;20.40;71.40;;;;;;5090033;28;20557;-46
2022/09/09 13:00:56;;;;;;;1.87;1.10;;;20.00;71.50;;;;;;5088809;28;20427;-48
2022/09/09 13:03:22;;;;;;;3.73;0.77;;;19.80;70.80;;;;;;5090208;28;20531;-46
2022/09/09 13:05:49;;;;;;;3.97;1.00;;;19.90;72.40;;;;;;5093120;28;20837;-45
2022/09/09 13:08:20;;;;;;;2.53;0.60;;;20.60;68.90;;;;;;5094445;28;20422;-48
2022/09/09 13:11:03;;;;;;;1.50;0.77;;;21.50;68.00;;;;;;5094999;28;20853;-46